createdAt,value
2022-12-14T00:00:33.033Z,0.00
2022-12-14T00:01:38.371Z,0.00
2022-12-14T00:02:32.028Z,0.00
2022-12-14T00:03:36.531Z,0.00
2022-12-14T00:04:38.545Z,0.00
2022-12-14T00:07:14.055Z,0.00
2022-12-14T00:07:30.804Z,0.00
2022-12-14T00:08:26.784Z,0.00
2022-12-14T00:09:24.439Z,0.00
2022-12-14T00:10:25.281Z,0.00
2022-12-14T00:11:23.736Z,0.00
2022-12-14T00:12:23.528Z,0.00
2022-12-14T00:13:28.490Z,0.00
2022-12-14T00:14:27.091Z,0.00
2022-12-14T00:15:30.529Z,0.00
2022-12-14T00:16:26.479Z,0.00
2022-12-14T00:17:30.797Z,0.00
2022-12-14T00:18:22.612Z,0.00
2022-12-14T00:19:26.699Z,0.00
2022-12-14T00:20:27.987Z,0.00
2022-12-14T00:21:23.540Z,0.00
2022-12-14T00:22:24.310Z,0.00
2022-12-14T00:23:38.518Z,0.00
2022-12-14T00:24:25.519Z,0.00
2022-12-14T00:25:27.586Z,0.00
2022-12-14T00:26:27.647Z,0.00
2022-12-14T00:27:25.479Z,0.00
2022-12-14T00:28:27.660Z,0.00
2022-12-14T00:29:24.739Z,0.00
2022-12-14T00:32:20.773Z,0.00
2022-12-14T00:33:21.178Z,0.00
2022-12-14T00:34:21.390Z,0.00
2022-12-14T00:35:21.180Z,0.00
2022-12-14T00:36:21.279Z,0.00
2022-12-14T00:37:21.726Z,0.00
2022-12-14T00:38:21.105Z,0.00
2022-12-14T00:39:21.088Z,0.00
2022-12-14T00:40:20.955Z,0.00
2022-12-14T00:41:21.096Z,0.00
2022-12-14T00:42:21.224Z,0.00
2022-12-14T00:43:20.845Z,0.00
2022-12-14T00:46:11.934Z,0.00
2022-12-14T00:47:12.473Z,0.00
2022-12-14T00:48:12.630Z,0.00
2022-12-14T00:49:12.396Z,0.00
2022-12-14T00:50:15.195Z,0.00
2022-12-14T00:51:14.703Z,0.00
2022-12-14T00:52:15.465Z,0.00
2022-12-14T00:53:13.987Z,0.00
2022-12-14T00:54:13.914Z,0.00
2022-12-14T00:55:14.996Z,0.00
2022-12-14T00:56:14.041Z,0.00
2022-12-14T00:57:14.122Z,0.00
2022-12-14T00:58:14.844Z,0.00
2022-12-14T00:59:14.745Z,0.00
2022-12-14T01:00:16.084Z,0.00
2022-12-14T01:01:14.639Z,0.00
2022-12-14T01:02:14.777Z,0.00
2022-12-14T01:03:14.071Z,0.00
2022-12-14T01:04:14.097Z,0.00
2022-12-14T01:05:14.423Z,0.00
2022-12-14T01:06:13.708Z,0.00
2022-12-14T01:07:14.227Z,0.00
2022-12-14T01:08:14.141Z,0.00
2022-12-14T01:09:13.698Z,0.00
2022-12-14T01:10:14.516Z,0.00
2022-12-14T01:11:14.559Z,0.00
2022-12-14T01:12:13.799Z,0.00
2022-12-14T01:13:14.252Z,0.00
2022-12-14T01:14:14.389Z,0.00
2022-12-14T01:15:14.344Z,0.00
2022-12-14T01:16:14.365Z,0.00
2022-12-14T01:17:13.915Z,0.00
2022-12-14T01:18:14.193Z,0.00
2022-12-14T01:19:14.462Z,0.00
2022-12-14T01:20:14.325Z,0.00
2022-12-14T01:21:14.058Z,0.00
2022-12-14T01:22:14.506Z,0.00
2022-12-14T01:23:13.460Z,0.00
2022-12-14T01:24:13.990Z,0.00
2022-12-14T01:25:14.794Z,0.00
2022-12-14T01:26:14.869Z,0.00
2022-12-14T01:27:14.671Z,0.00
2022-12-14T01:28:13.919Z,0.00
2022-12-14T01:29:13.324Z,0.00
2022-12-14T01:30:13.681Z,0.00
2022-12-14T01:31:14.042Z,0.00
2022-12-14T01:32:13.826Z,0.00
2022-12-14T01:33:13.485Z,0.00
2022-12-14T01:34:13.910Z,0.00
2022-12-14T01:35:14.093Z,0.00
2022-12-14T01:36:13.527Z,0.00
2022-12-14T01:37:13.199Z,0.00
2022-12-14T01:38:15.855Z,0.00
2022-12-14T01:39:14.446Z,0.00
2022-12-14T01:40:13.664Z,0.00
2022-12-14T01:41:13.965Z,0.00
2022-12-14T01:42:13.917Z,0.00
2022-12-14T01:43:14.136Z,0.00
2022-12-14T01:44:15.038Z,0.00
2022-12-14T01:45:13.872Z,0.00
2022-12-14T01:46:14.138Z,0.00
2022-12-14T01:47:13.947Z,0.00
2022-12-14T01:48:13.871Z,0.00
2022-12-14T01:49:13.795Z,0.00
2022-12-14T01:50:14.841Z,0.00
2022-12-14T01:51:14.797Z,0.00
2022-12-14T01:52:16.372Z,0.00
2022-12-14T01:53:14.617Z,0.00
2022-12-14T01:54:14.188Z,0.00
2022-12-14T01:55:15.875Z,0.00
2022-12-14T01:56:13.284Z,0.00
2022-12-14T01:57:13.945Z,0.00
2022-12-14T01:58:14.610Z,0.00
2022-12-14T01:59:14.673Z,0.00
2022-12-14T02:00:14.422Z,0.00
2022-12-14T02:01:14.033Z,0.00
2022-12-14T02:02:14.410Z,0.00
2022-12-14T02:03:13.836Z,0.00
2022-12-14T02:04:13.493Z,0.00
2022-12-14T02:05:14.036Z,0.00
2022-12-14T02:06:13.070Z,0.00
2022-12-14T02:07:13.788Z,0.00
2022-12-14T02:08:15.327Z,0.00
2022-12-14T02:09:13.514Z,0.00
2022-12-14T02:10:13.761Z,0.00
2022-12-14T02:11:13.280Z,0.00
2022-12-14T02:12:39.323Z,0.00
2022-12-14T02:13:13.406Z,0.00
2022-12-14T02:14:13.365Z,0.00
2022-12-14T02:15:13.579Z,0.00
2022-12-14T02:16:13.283Z,0.00
2022-12-14T02:17:13.937Z,0.00
2022-12-14T02:18:14.404Z,0.00
2022-12-14T02:19:15.145Z,0.00
2022-12-14T02:20:13.003Z,0.00
2022-12-14T02:21:12.809Z,0.00
2022-12-14T02:22:13.056Z,0.00
2022-12-14T02:23:13.172Z,0.00
2022-12-14T02:24:12.959Z,0.00
2022-12-14T02:25:13.343Z,0.00
2022-12-14T02:26:13.449Z,0.00
2022-12-14T02:27:13.591Z,0.00
2022-12-14T02:28:13.103Z,0.00
2022-12-14T02:29:13.182Z,0.00
2022-12-14T02:30:13.039Z,0.00
2022-12-14T02:31:13.989Z,0.00
2022-12-14T02:32:13.391Z,0.00
2022-12-14T02:33:12.884Z,0.00
2022-12-14T02:34:12.765Z,0.00
2022-12-14T02:35:13.868Z,0.00
2022-12-14T02:36:12.938Z,0.00
2022-12-14T02:37:13.026Z,0.00
2022-12-14T02:38:12.864Z,0.00
2022-12-14T02:39:12.965Z,0.00
2022-12-14T02:40:14.085Z,0.00
2022-12-14T02:41:13.283Z,0.00
2022-12-14T02:42:14.518Z,0.00
2022-12-14T02:43:13.157Z,0.00
2022-12-14T02:44:12.945Z,0.00
2022-12-14T02:45:13.125Z,0.00
2022-12-14T02:46:12.776Z,0.00
2022-12-14T02:47:12.833Z,0.00
2022-12-14T02:48:12.956Z,0.00
2022-12-14T02:49:13.110Z,0.00
2022-12-14T02:50:13.250Z,0.00
2022-12-14T02:51:12.822Z,0.00
2022-12-14T02:52:13.081Z,0.00
2022-12-14T02:53:12.853Z,0.00
2022-12-14T02:54:12.276Z,0.00
2022-12-14T02:55:12.450Z,0.00
2022-12-14T02:56:12.705Z,0.00
2022-12-14T02:57:12.336Z,0.00
2022-12-14T02:58:12.719Z,0.00
2022-12-14T02:59:12.515Z,0.00
2022-12-14T03:00:13.622Z,0.00
2022-12-14T03:01:13.383Z,0.00
2022-12-14T03:02:12.580Z,0.00
2022-12-14T03:03:12.322Z,0.00
2022-12-14T03:04:12.190Z,0.00
2022-12-14T03:05:12.345Z,0.00
2022-12-14T03:06:12.146Z,0.00
2022-12-14T03:07:12.141Z,0.00
2022-12-14T03:08:12.321Z,0.00
2022-12-14T03:09:12.746Z,0.00
2022-12-14T03:10:12.335Z,0.00
2022-12-14T03:11:12.319Z,0.00
2022-12-14T03:12:12.645Z,0.00
2022-12-14T03:13:13.231Z,0.00
2022-12-14T03:14:12.369Z,0.00
2022-12-14T03:15:12.005Z,0.00
2022-12-14T03:16:12.371Z,0.00
2022-12-14T03:17:16.313Z,0.00
2022-12-14T03:18:14.169Z,0.00
2022-12-14T03:19:12.709Z,0.00
2022-12-14T03:20:12.216Z,0.00
2022-12-14T03:21:12.471Z,0.00
2022-12-14T03:22:12.219Z,0.00
2022-12-14T03:23:12.298Z,0.00
2022-12-14T03:24:12.239Z,0.00
2022-12-14T03:25:12.111Z,0.00
2022-12-14T03:26:12.110Z,0.00
2022-12-14T03:27:12.253Z,0.00
2022-12-14T03:28:12.130Z,0.00
2022-12-14T03:29:11.874Z,0.00
2022-12-14T03:30:12.015Z,0.00
2022-12-14T03:31:12.291Z,0.00
2022-12-14T03:32:12.022Z,0.00
2022-12-14T03:45:56.492Z,0.00
2022-12-14T03:46:56.775Z,0.00
2022-12-14T03:47:56.850Z,0.00
2022-12-14T03:48:56.732Z,0.00
2022-12-14T03:49:58.532Z,0.00
2022-12-14T03:50:58.282Z,0.00
2022-12-14T03:51:58.262Z,0.00
2022-12-14T03:52:58.453Z,0.00
2022-12-14T03:53:58.079Z,0.00
2022-12-14T03:54:58.346Z,0.00
2022-12-14T03:55:58.398Z,0.00
2022-12-14T03:56:58.246Z,0.00
2022-12-14T03:57:58.139Z,0.00
2022-12-14T03:58:59.277Z,0.00
2022-12-14T03:59:58.036Z,0.00
2022-12-14T04:00:58.065Z,0.00
2022-12-14T04:01:57.845Z,0.00
2022-12-14T04:02:58.977Z,0.00
2022-12-14T04:03:58.012Z,0.00
2022-12-14T04:04:57.822Z,0.00
2022-12-14T04:05:57.966Z,0.00
2022-12-14T04:06:58.027Z,0.00
2022-12-14T04:07:58.356Z,0.00
2022-12-14T04:08:57.897Z,0.00
2022-12-14T04:09:58.460Z,0.00
2022-12-14T04:10:57.720Z,0.00
2022-12-14T04:11:57.975Z,0.00
2022-12-14T04:12:57.704Z,0.00
2022-12-14T04:13:58.538Z,0.00
2022-12-14T04:14:58.269Z,0.00
2022-12-14T04:15:58.235Z,0.00
2022-12-14T04:16:58.253Z,0.00
2022-12-14T04:17:58.483Z,0.00
2022-12-14T04:18:59.693Z,0.00
2022-12-14T04:19:58.060Z,0.00
2022-12-14T04:20:57.790Z,0.00
2022-12-14T04:21:57.544Z,0.00
2022-12-14T04:22:57.996Z,0.00
2022-12-14T04:23:57.797Z,0.00
2022-12-14T04:24:57.755Z,0.00
2022-12-14T04:25:57.691Z,0.00
2022-12-14T04:26:57.550Z,0.00
2022-12-14T04:27:57.771Z,0.00
2022-12-14T04:28:58.239Z,0.00
2022-12-14T04:29:57.599Z,0.00
2022-12-14T04:30:57.600Z,0.00
2022-12-14T04:31:57.746Z,0.00
2022-12-14T04:32:58.492Z,0.00
2022-12-14T04:33:57.758Z,0.00
2022-12-14T04:34:57.701Z,0.00
2022-12-14T04:35:58.279Z,0.00
2022-12-14T04:36:57.639Z,0.00
2022-12-14T04:37:57.778Z,0.00
2022-12-14T04:38:57.912Z,0.00
2022-12-14T04:39:57.852Z,0.00
2022-12-14T04:40:57.545Z,0.00
2022-12-14T04:41:57.820Z,0.00
2022-12-14T04:42:58.238Z,0.00
2022-12-14T04:43:57.574Z,0.00
2022-12-14T04:44:57.886Z,0.00
2022-12-14T04:45:57.623Z,0.00
2022-12-14T04:46:57.544Z,0.00
2022-12-14T04:47:57.882Z,0.00
2022-12-14T04:48:57.344Z,0.00
2022-12-14T04:49:57.306Z,0.00
2022-12-14T04:50:57.482Z,0.00
2022-12-14T04:52:03.446Z,0.00
2022-12-14T04:52:59.595Z,0.00
2022-12-14T04:53:57.556Z,0.00
2022-12-14T04:54:57.821Z,0.00
2022-12-14T04:55:57.599Z,0.00
2022-12-14T04:56:57.344Z,0.00
2022-12-14T04:57:57.475Z,0.00
2022-12-14T04:58:57.245Z,0.00
2022-12-14T04:59:57.273Z,0.00
2022-12-14T05:00:57.719Z,0.00
2022-12-14T05:01:57.356Z,0.00
2022-12-14T05:02:57.297Z,0.00
2022-12-14T05:03:58.144Z,0.00
2022-12-14T05:04:57.163Z,0.00
2022-12-14T05:05:58.445Z,0.00
2022-12-14T05:06:57.327Z,0.00
2022-12-14T05:07:57.340Z,0.00
2022-12-14T05:08:57.224Z,0.00
2022-12-14T05:09:57.229Z,0.00
2022-12-14T05:11:10.459Z,0.00
2022-12-14T05:11:59.384Z,0.00
2022-12-14T05:12:57.316Z,0.00
2022-12-14T05:13:57.159Z,0.00
2022-12-14T05:14:57.451Z,0.00
2022-12-14T05:15:57.067Z,0.00
2022-12-14T05:16:57.117Z,0.00
2022-12-14T05:17:57.236Z,0.00
2022-12-14T05:18:56.959Z,0.00
2022-12-14T05:19:56.962Z,0.00
2022-12-14T05:20:57.072Z,0.00
2022-12-14T05:21:57.035Z,0.00
2022-12-14T05:22:56.943Z,0.00
2022-12-14T05:23:57.174Z,0.00
2022-12-14T05:24:57.270Z,0.00
2022-12-14T05:25:57.101Z,0.00
2022-12-14T05:26:57.443Z,0.00
2022-12-14T05:27:57.008Z,0.00
2022-12-14T05:28:57.682Z,0.00
2022-12-14T05:29:57.172Z,0.00
2022-12-14T05:30:57.177Z,0.00
2022-12-14T05:31:57.136Z,0.00
2022-12-14T05:32:57.760Z,0.00
2022-12-14T05:33:57.837Z,0.00
2022-12-14T05:34:57.683Z,0.00
2022-12-14T05:35:57.820Z,0.00
2022-12-14T05:36:57.640Z,0.00
2022-12-14T05:37:57.570Z,0.00
2022-12-14T05:38:57.069Z,0.00
2022-12-14T05:39:57.371Z,0.00
2022-12-14T05:40:57.331Z,0.00
2022-12-14T05:41:57.862Z,0.00
2022-12-14T05:42:57.286Z,0.00
2022-12-14T05:43:57.001Z,0.00
2022-12-14T05:44:57.186Z,0.00
2022-12-14T05:45:56.745Z,0.00
2022-12-14T05:46:56.959Z,0.00
2022-12-14T05:47:57.032Z,0.00
2022-12-14T05:48:57.256Z,0.00
2022-12-14T05:49:56.789Z,0.00
2022-12-14T05:50:56.745Z,0.00
2022-12-14T05:51:57.818Z,0.00
2022-12-14T05:52:56.923Z,0.00
2022-12-14T05:53:56.979Z,0.00
2022-12-14T05:55:02.322Z,0.00
2022-12-14T05:55:59.088Z,0.00
2022-12-14T05:56:56.774Z,0.00
2022-12-14T05:57:57.880Z,0.00
2022-12-14T05:58:56.947Z,0.00
2022-12-14T05:59:56.468Z,0.00
2022-12-14T06:00:56.869Z,0.00
2022-12-14T06:01:56.924Z,0.00
2022-12-14T06:02:57.028Z,0.00
2022-12-14T06:03:57.487Z,0.00
2022-12-14T06:04:56.698Z,0.00
2022-12-14T06:06:30.225Z,0.00
2022-12-14T06:06:56.924Z,0.00
2022-12-14T06:07:56.956Z,0.00
2022-12-14T06:08:56.823Z,0.00
2022-12-14T06:10:32.595Z,0.00
2022-12-14T06:10:57.276Z,0.00
2022-12-14T06:11:56.859Z,0.00
2022-12-14T06:12:56.833Z,0.00
2022-12-14T06:13:56.500Z,0.00
2022-12-14T06:14:57.056Z,0.00
2022-12-14T06:15:56.499Z,0.00
2022-12-14T06:16:56.524Z,0.00
2022-12-14T06:17:56.465Z,0.00
2022-12-14T06:18:56.719Z,0.00
2022-12-14T06:19:56.498Z,0.00
2022-12-14T06:20:58.256Z,0.00
2022-12-14T06:21:56.266Z,0.00
2022-12-14T06:22:56.362Z,0.00
2022-12-14T06:23:56.217Z,0.00
2022-12-14T06:24:56.503Z,0.00
2022-12-14T06:25:56.382Z,0.00
2022-12-14T06:26:56.396Z,0.00
2022-12-14T06:27:56.366Z,0.00
2022-12-14T06:28:56.501Z,0.00
2022-12-14T06:29:56.686Z,0.00
2022-12-14T06:30:56.389Z,0.00
2022-12-14T06:31:56.622Z,0.00
2022-12-14T06:32:56.137Z,0.00
2022-12-14T06:33:56.219Z,0.00
2022-12-14T06:34:56.614Z,0.00
2022-12-14T06:35:55.935Z,0.00
2022-12-14T06:36:56.578Z,0.00
2022-12-14T06:37:56.069Z,0.00
2022-12-14T06:38:56.293Z,0.00
2022-12-14T06:39:56.344Z,0.00
2022-12-14T06:40:56.050Z,0.00
2022-12-14T06:41:55.987Z,0.00
2022-12-14T06:42:56.343Z,0.00
2022-12-14T06:43:56.331Z,0.00
2022-12-14T06:44:56.115Z,0.00
2022-12-14T06:45:56.092Z,0.00
2022-12-14T06:46:56.757Z,0.00
2022-12-14T06:47:57.200Z,0.00
2022-12-14T06:48:56.995Z,0.00
2022-12-14T06:49:57.723Z,0.00
2022-12-14T06:51:04.019Z,0.00
2022-12-14T06:52:02.001Z,0.00
2022-12-14T06:53:01.656Z,0.00
2022-12-14T06:54:02.774Z,0.00
2022-12-14T06:54:57.112Z,0.00
2022-12-14T06:56:30.912Z,0.00
2022-12-14T06:56:59.951Z,0.00
2022-12-14T06:57:56.903Z,0.00
2022-12-14T06:58:57.063Z,0.00
2022-12-14T06:59:59.617Z,0.00
2022-12-14T07:00:58.543Z,0.00
2022-12-14T07:01:56.078Z,0.00
2022-12-14T07:02:56.150Z,0.00
2022-12-14T07:03:56.235Z,0.00
2022-12-14T07:04:56.091Z,0.00
2022-12-14T07:05:55.930Z,0.00
2022-12-14T07:06:55.946Z,0.00
2022-12-14T07:07:55.867Z,0.00
2022-12-14T07:08:55.832Z,0.00
2022-12-14T07:09:55.691Z,0.00
2022-12-14T07:11:01.956Z,0.00
2022-12-14T07:11:57.699Z,0.00
2022-12-14T07:12:55.683Z,0.00
2022-12-14T07:13:55.621Z,0.00
2022-12-14T07:14:55.693Z,0.00
2022-12-14T07:15:55.792Z,0.00
2022-12-14T07:16:55.542Z,0.00
2022-12-14T07:17:55.677Z,0.00
2022-12-14T07:18:58.185Z,0.00
2022-12-14T07:19:55.611Z,0.00
2022-12-14T07:20:55.511Z,0.00
2022-12-14T07:21:55.592Z,0.00
2022-12-14T07:22:55.550Z,0.00
2022-12-14T07:23:55.507Z,0.00
2022-12-14T07:24:55.571Z,0.00
2022-12-14T07:25:55.491Z,0.00
2022-12-14T07:26:55.475Z,0.00
2022-12-14T07:27:55.502Z,5.62
2022-12-14T07:28:55.466Z,5.62
2022-12-14T07:29:55.420Z,5.62
2022-12-14T07:30:55.548Z,5.62
2022-12-14T07:31:55.438Z,5.62
2022-12-14T07:32:55.413Z,5.62
2022-12-14T07:33:55.475Z,5.62
2022-12-14T07:34:55.422Z,5.62
2022-12-14T07:35:55.390Z,5.62
2022-12-14T07:36:55.370Z,5.62
2022-12-14T07:37:55.351Z,5.62
2022-12-14T07:38:55.369Z,5.62
2022-12-14T07:39:55.388Z,5.62
2022-12-14T07:40:55.355Z,11.25
2022-12-14T07:41:56.131Z,11.25
2022-12-14T07:42:55.304Z,11.25
2022-12-14T07:43:55.336Z,11.25
2022-12-14T07:44:55.351Z,11.25
2022-12-14T07:45:55.294Z,11.25
2022-12-14T07:46:55.317Z,11.25
2022-12-14T07:47:55.260Z,11.25
2022-12-14T07:48:55.364Z,11.25
2022-12-14T07:49:55.238Z,11.25
2022-12-14T07:50:55.225Z,11.25
2022-12-14T07:51:55.232Z,16.88
2022-12-14T07:52:55.288Z,16.88
2022-12-14T07:53:55.227Z,16.88
2022-12-14T07:54:55.293Z,16.88
2022-12-14T07:55:55.264Z,16.88
2022-12-14T07:56:55.176Z,22.50
2022-12-14T07:57:55.224Z,22.50
2022-12-14T07:58:55.195Z,22.50
2022-12-14T07:59:57.588Z,16.88
2022-12-14T08:00:56.174Z,16.88
2022-12-14T08:01:55.217Z,16.88
2022-12-14T08:02:55.140Z,22.50
2022-12-14T08:03:55.187Z,22.50
2022-12-14T08:04:55.259Z,22.50
2022-12-14T08:05:55.118Z,22.50
2022-12-14T08:06:55.437Z,28.12
2022-12-14T08:07:55.120Z,28.12
2022-12-14T08:08:55.064Z,28.12
2022-12-14T08:09:55.071Z,33.75
2022-12-14T08:10:55.061Z,33.75
2022-12-14T08:11:55.221Z,33.75
2022-12-14T08:12:55.096Z,33.75
2022-12-14T08:13:55.046Z,33.75
2022-12-14T08:14:55.091Z,33.75
2022-12-14T08:15:55.109Z,39.38
2022-12-14T08:16:54.988Z,39.38
2022-12-14T08:17:55.003Z,39.38
2022-12-14T08:18:55.674Z,39.38
2022-12-14T08:19:55.006Z,39.38
2022-12-14T08:20:55.006Z,39.38
2022-12-14T08:21:55.028Z,39.38
2022-12-14T08:22:54.949Z,33.75
2022-12-14T08:23:55.029Z,33.75
2022-12-14T08:24:54.953Z,39.38
2022-12-14T08:25:54.983Z,39.38
2022-12-14T08:26:54.928Z,39.38
2022-12-14T08:27:54.942Z,39.38
2022-12-14T08:28:54.956Z,39.38
2022-12-14T08:29:54.886Z,45.00
2022-12-14T08:30:54.913Z,45.00
2022-12-14T08:31:54.887Z,45.00
2022-12-14T08:32:54.859Z,45.00
2022-12-14T08:33:54.916Z,50.62
2022-12-14T08:34:54.832Z,50.62
2022-12-14T08:35:54.877Z,50.62
2022-12-14T08:36:54.854Z,50.62
2022-12-14T08:37:54.852Z,50.62
2022-12-14T08:38:54.818Z,50.62
2022-12-14T08:39:55.555Z,50.62
2022-12-14T08:40:54.804Z,50.62
2022-12-14T08:41:54.853Z,50.62
2022-12-14T08:42:54.778Z,50.62
2022-12-14T08:43:55.479Z,50.62
2022-12-14T08:44:54.764Z,56.25
2022-12-14T08:45:54.781Z,56.25
2022-12-14T08:46:54.809Z,56.25
2022-12-14T08:47:54.781Z,56.25
2022-12-14T08:49:00.497Z,56.25
2022-12-14T08:49:55.709Z,56.25
2022-12-14T08:50:54.685Z,61.88
2022-12-14T08:51:54.641Z,61.88
2022-12-14T08:52:54.687Z,61.88
2022-12-14T08:53:54.669Z,67.50
2022-12-14T08:54:54.723Z,67.50
2022-12-14T08:55:54.786Z,67.50
2022-12-14T08:56:54.669Z,73.12
2022-12-14T08:57:54.675Z,73.12
2022-12-14T08:58:54.688Z,73.12
2022-12-14T09:00:02.750Z,78.75
2022-12-14T09:00:56.702Z,78.75
2022-12-14T09:01:54.700Z,84.38
2022-12-14T09:02:54.677Z,84.38
2022-12-14T09:03:54.571Z,84.38
2022-12-14T09:04:54.552Z,84.38
2022-12-14T09:05:54.642Z,84.38
2022-12-14T09:06:54.599Z,84.38
2022-12-14T09:07:54.526Z,84.38
2022-12-14T09:08:54.513Z,84.38
2022-12-14T09:09:54.540Z,84.38
2022-12-14T09:10:54.571Z,84.38
2022-12-14T09:11:54.510Z,84.38
2022-12-14T09:12:54.478Z,84.38
2022-12-14T09:13:54.518Z,84.38
2022-12-14T09:14:54.427Z,84.38
2022-12-14T09:15:54.507Z,90.00
2022-12-14T09:16:54.535Z,90.00
2022-12-14T09:17:54.465Z,95.62
2022-12-14T09:18:54.376Z,101.25
2022-12-14T09:19:54.417Z,106.88
2022-12-14T09:20:55.399Z,112.50
2022-12-14T09:21:54.439Z,118.12
2022-12-14T09:22:54.464Z,118.12
2022-12-14T09:23:59.312Z,118.12
2022-12-14T09:24:56.421Z,118.12
2022-12-14T09:25:55.088Z,118.12
2022-12-14T09:26:54.337Z,123.75
2022-12-14T09:27:54.420Z,129.38
2022-12-14T09:28:54.355Z,135.00
2022-12-14T09:29:54.328Z,146.25
2022-12-14T09:30:54.392Z,151.88
2022-12-14T09:31:54.375Z,163.12
2022-12-14T09:32:54.348Z,163.12
2022-12-14T09:33:54.362Z,168.75
2022-12-14T09:34:54.326Z,168.75
2022-12-14T09:35:54.300Z,174.38
2022-12-14T09:36:54.275Z,174.38
2022-12-14T09:37:54.307Z,174.38
2022-12-14T09:38:54.255Z,174.38
2022-12-14T09:39:55.104Z,174.38
2022-12-14T09:40:54.272Z,174.38
2022-12-14T09:42:00.655Z,168.75
2022-12-14T09:42:56.228Z,163.12
2022-12-14T09:43:54.167Z,163.12
2022-12-14T09:44:54.229Z,157.50
2022-12-14T09:45:54.284Z,157.50
2022-12-14T09:46:54.288Z,151.88
2022-12-14T09:47:54.188Z,151.88
2022-12-14T09:48:54.215Z,146.25
2022-12-14T09:49:54.228Z,146.25
2022-12-14T09:50:54.350Z,146.25
2022-12-14T09:51:54.157Z,146.25
2022-12-14T09:52:54.178Z,146.25
2022-12-14T09:53:57.978Z,146.25
2022-12-14T09:54:56.123Z,140.62
2022-12-14T09:55:55.209Z,135.00
2022-12-14T09:56:54.125Z,135.00
2022-12-14T09:57:54.151Z,135.00
2022-12-14T09:58:54.106Z,135.00
2022-12-14T09:59:54.241Z,135.00
2022-12-14T10:00:54.190Z,135.00
2022-12-14T10:02:30.230Z,129.38
2022-12-14T10:02:58.394Z,129.38
2022-12-14T10:03:55.254Z,123.75
2022-12-14T10:04:54.006Z,123.75
2022-12-14T10:05:54.033Z,118.12
2022-12-14T10:06:54.158Z,118.12
2022-12-14T10:07:53.950Z,112.50
2022-12-14T10:08:54.905Z,106.88
2022-12-14T10:09:55.027Z,106.88
2022-12-14T10:10:54.023Z,106.88
2022-12-14T10:11:53.981Z,106.88
2022-12-14T10:12:53.954Z,106.88
2022-12-14T10:13:53.962Z,106.88
2022-12-14T10:14:53.936Z,106.88
2022-12-14T10:15:54.007Z,106.88
2022-12-14T10:16:53.968Z,106.88
2022-12-14T10:17:53.978Z,101.25
2022-12-14T10:18:59.943Z,101.25
2022-12-14T10:19:55.917Z,95.62
2022-12-14T10:20:53.938Z,90.00
2022-12-14T10:21:53.933Z,90.00
2022-12-14T10:22:53.863Z,90.00
2022-12-14T10:23:53.841Z,90.00
2022-12-14T10:24:54.021Z,90.00
2022-12-14T10:25:53.971Z,90.00
2022-12-14T10:26:53.863Z,90.00
2022-12-14T10:28:10.326Z,90.00
2022-12-14T10:29:00.874Z,90.00
2022-12-14T10:29:55.925Z,90.00
2022-12-14T10:30:54.110Z,90.00
2022-12-14T10:31:54.285Z,90.00
2022-12-14T10:32:53.974Z,90.00
2022-12-14T10:33:53.956Z,90.00
2022-12-14T10:34:54.967Z,95.62
2022-12-14T10:35:53.994Z,95.62
2022-12-14T10:36:54.232Z,95.62
2022-12-14T10:37:53.862Z,101.25
2022-12-14T10:38:54.074Z,101.25
2022-12-14T10:39:53.961Z,106.88
2022-12-14T10:40:53.901Z,106.88
2022-12-14T10:41:54.087Z,106.88
2022-12-14T10:42:53.787Z,101.25
2022-12-14T10:43:53.931Z,101.25
2022-12-14T10:45:04.373Z,101.25
2022-12-14T10:45:56.011Z,101.25
2022-12-14T10:46:54.299Z,101.25
2022-12-14T10:47:54.227Z,101.25
2022-12-14T10:48:54.212Z,101.25
2022-12-14T10:49:54.166Z,101.25
2022-12-14T10:50:54.479Z,101.25
2022-12-14T10:51:53.831Z,101.25
2022-12-14T10:52:54.298Z,101.25
2022-12-14T10:53:54.192Z,101.25
2022-12-14T10:54:53.930Z,101.25
2022-12-14T10:55:53.960Z,101.25
2022-12-14T10:56:53.812Z,101.25
2022-12-14T10:57:53.809Z,101.25
2022-12-14T10:58:53.834Z,106.88
2022-12-14T11:00:07.854Z,106.88
2022-12-14T11:00:55.766Z,112.50
2022-12-14T11:01:54.065Z,118.12
2022-12-14T11:02:53.796Z,118.12
2022-12-14T11:03:53.819Z,123.75
2022-12-14T11:04:53.759Z,123.75
2022-12-14T11:05:53.742Z,129.38
2022-12-14T11:06:53.808Z,129.38
2022-12-14T11:07:53.970Z,135.00
2022-12-14T11:08:53.638Z,135.00
2022-12-14T11:09:53.905Z,135.00
2022-12-14T11:10:53.790Z,129.38
2022-12-14T11:11:53.620Z,123.75
2022-12-14T11:12:53.772Z,123.75
2022-12-14T11:13:53.940Z,118.12
2022-12-14T11:14:54.000Z,118.12
2022-12-14T11:15:53.678Z,118.12
2022-12-14T11:16:54.229Z,118.12
2022-12-14T11:17:54.108Z,118.12
2022-12-14T11:18:54.804Z,118.12
2022-12-14T11:19:54.837Z,118.12
2022-12-14T11:20:54.742Z,118.12
2022-12-14T11:21:54.488Z,118.12
2022-12-14T11:22:53.144Z,118.12
2022-12-14T11:23:53.164Z,123.75
2022-12-14T11:24:53.146Z,123.75
2022-12-14T11:25:53.143Z,129.38
2022-12-14T11:26:53.145Z,129.38
2022-12-14T11:27:53.109Z,135.00
2022-12-14T11:28:53.100Z,135.00
2022-12-14T11:29:53.069Z,140.62
2022-12-14T11:30:53.173Z,140.62
2022-12-14T11:31:53.091Z,140.62
2022-12-14T11:32:53.084Z,140.62
2022-12-14T11:33:53.079Z,146.25
2022-12-14T11:34:53.016Z,146.25
2022-12-14T11:35:53.061Z,146.25
2022-12-14T11:36:53.022Z,151.88
2022-12-14T11:37:53.240Z,151.88
2022-12-14T11:38:53.001Z,157.50
2022-12-14T11:39:52.992Z,157.50
2022-12-14T11:40:52.945Z,157.50
2022-12-14T11:41:53.069Z,157.50
2022-12-14T11:42:52.943Z,163.12
2022-12-14T11:43:52.934Z,163.12
2022-12-14T11:44:52.878Z,163.12
2022-12-14T11:45:52.956Z,168.75
2022-12-14T11:46:52.979Z,168.75
2022-12-14T11:47:52.892Z,168.75
2022-12-14T11:48:52.955Z,174.38
2022-12-14T11:49:52.884Z,174.38
2022-12-14T11:50:52.846Z,174.38
2022-12-14T11:51:52.872Z,174.38
2022-12-14T11:52:52.902Z,174.38
2022-12-14T11:53:52.867Z,174.38
2022-12-14T11:54:52.824Z,174.38
2022-12-14T11:55:52.960Z,174.38
2022-12-14T11:56:52.839Z,168.75
2022-12-14T11:57:52.827Z,168.75
2022-12-14T11:58:52.813Z,168.75
2022-12-14T11:59:52.782Z,168.75
2022-12-14T12:00:52.789Z,174.38
2022-12-14T12:01:52.799Z,174.38
2022-12-14T12:02:52.836Z,174.38
2022-12-14T12:03:52.809Z,174.38
2022-12-14T12:04:52.734Z,174.38
2022-12-14T12:05:52.706Z,174.38
2022-12-14T12:06:52.719Z,180.00
2022-12-14T12:07:52.805Z,180.00
2022-12-14T12:08:52.728Z,180.00
2022-12-14T12:09:52.742Z,180.00
2022-12-14T12:10:52.697Z,185.62
2022-12-14T12:11:52.693Z,185.62
2022-12-14T12:12:52.687Z,185.62
2022-12-14T12:13:53.654Z,196.88
2022-12-14T12:14:53.477Z,202.50
2022-12-14T12:15:52.648Z,208.12
2022-12-14T12:16:52.621Z,213.75
2022-12-14T12:17:52.604Z,202.50
2022-12-14T12:18:52.632Z,202.50
2022-12-14T12:19:52.590Z,208.12
2022-12-14T12:20:52.556Z,213.75
2022-12-14T12:21:53.045Z,202.50
2022-12-14T12:22:52.568Z,202.50
2022-12-14T12:23:52.547Z,208.12
2022-12-14T12:25:16.782Z,219.38
2022-12-14T12:25:54.539Z,208.12
2022-12-14T12:26:52.525Z,191.25
2022-12-14T12:27:52.553Z,191.25
2022-12-14T12:28:52.532Z,185.62
2022-12-14T12:29:52.500Z,180.00
2022-12-14T12:30:52.541Z,180.00
2022-12-14T12:31:52.463Z,180.00
2022-12-14T12:32:52.501Z,174.38
2022-12-14T12:33:52.477Z,174.38
2022-12-14T12:34:52.476Z,174.38
2022-12-14T12:35:52.433Z,174.38
2022-12-14T12:37:24.805Z,168.75
2022-12-14T12:37:54.441Z,168.75
2022-12-14T12:38:52.424Z,168.75
2022-12-14T12:39:52.459Z,168.75
2022-12-14T12:40:52.403Z,168.75
2022-12-14T12:41:52.405Z,168.75
2022-12-14T12:42:52.393Z,168.75
2022-12-14T12:43:52.346Z,163.12
2022-12-14T12:44:52.438Z,168.75
2022-12-14T12:45:52.324Z,168.75
2022-12-14T12:47:22.340Z,168.75
2022-12-14T12:47:54.389Z,168.75
2022-12-14T12:48:53.300Z,163.12
2022-12-14T12:49:52.298Z,163.12
2022-12-14T12:50:52.302Z,174.38
2022-12-14T12:51:52.417Z,163.12
2022-12-14T12:52:55.387Z,163.12
2022-12-14T12:53:53.268Z,163.12
2022-12-14T12:54:52.239Z,168.75
2022-12-14T12:55:52.289Z,168.75
2022-12-14T12:56:52.254Z,168.75
2022-12-14T12:57:52.235Z,168.75
2022-12-14T12:58:53.120Z,168.75
2022-12-14T12:59:53.245Z,168.75
2022-12-14T13:00:52.164Z,168.75
2022-12-14T13:01:52.273Z,174.38
2022-12-14T13:02:52.432Z,174.38
2022-12-14T13:03:52.243Z,174.38
2022-12-14T13:04:52.793Z,180.00
2022-12-14T13:05:53.154Z,185.62
2022-12-14T13:06:52.151Z,191.25
2022-12-14T13:07:52.130Z,180.00
2022-12-14T13:08:52.144Z,180.00
2022-12-14T13:09:52.126Z,191.25
2022-12-14T13:11:54.119Z,191.25
2022-12-14T13:12:52.119Z,180.00
2022-12-14T13:13:52.107Z,180.00
2022-12-14T13:14:52.117Z,185.62
2022-12-14T13:15:52.142Z,185.62
2022-12-14T13:16:52.090Z,168.75
2022-12-14T13:17:52.127Z,180.00